Главная страница
METAR-TAF:

METAR-TAF

Аэропорты :

Эребру, Швеция

широта: 59-14N, долгота: 015-03E, высота над уровнем моря: 57 м

Текущие метеонаблюдения

Эта сводка был подготовлена 23 минут назад, в 12:50 UTC
Ветер 5 Узел от восточно-северо-восточный
Температура 1°C
Влажность 93%
Давление 1021 hPa
Видимость: 6000 м
Рассеянная облачность на высоте 700 фута
дымка

METAR: ESOE 191250Z 07005KT 6000 BR BKN007 01/M00 Q1021

Время: 14:13 (13:13 UTC)

Прогноз

Эта сводка был подготовлена 17 минут назад, в 12:56 UTC
Прогноз действительный с 19-го 12 UTC до 19-го 21 UTC
Ветер 6 Узел от восточно-северо-восточный
Видимость: 6000 м
Рассеянная облачность на высоте 1500 фута
временами
С 19-го 13 UTC до 19-го 21 UTC
Видимость: 2000 м
Рассеянная облачность на высоте 800 фута
небольшой снег, дымка

TAF: ESOE 191256Z 1912/1921 07006KT 6000 BKN015 TEMPO 1913/1921 2000 -SN BR BKN008

Метеонаблюдения и прогнозы для более 4000 аэропортов (сводки METAR и TAF).

Имеющиеся станции представлены на карте желтыми и красными точками.

Чтобы увидеть название станции, наведите на нее мышь.

Затем щелкните, чтобы увидеть метеонаблюдения и метеопрогнозы.

Управление картой: чтобы увеличить масштаб, щелкните зеленые кнопки с черным крестиком; чтобы уменьшить масштаб, щелкните зеленую кнопку с тире; для просмотра соседних карт щелкайте зеленые стрелки.


METAR-TAF: